sensor_id;sensor_type;location;lat;lon;timestamp;pressure;altitude;pressure_sealevel;temperature;humidity
26043;BME280;13818;52.156;5.382;2022-08-19T00:02:25;101116.72;;;19.90;100.00
26043;BME280;13818;52.156;5.382;2022-08-19T00:04:51;101119.41;;;19.90;100.00
26043;BME280;13818;52.156;5.382;2022-08-19T00:07:19;101107.72;;;19.89;100.00
26043;BME280;13818;52.156;5.382;2022-08-19T00:09:46;101113.59;;;19.94;100.00
26043;BME280;13818;52.156;5.382;2022-08-19T00:12:13;101114.50;;;19.95;100.00
26043;BME280;13818;52.156;5.382;2022-08-19T00:14:40;101112.63;;;19.95;100.00
26043;BME280;13818;52.156;5.382;2022-08-19T00:17:08;101123.84;;;19.91;100.00
26043;BME280;13818;52.156;5.382;2022-08-19T00:19:37;101114.50;;;19.83;100.00
26043;BME280;13818;52.156;5.382;2022-08-19T00:22:04;101120.88;;;19.82;100.00
26043;BME280;13818;52.156;5.382;2022-08-19T00:24:31;101113.84;;;19.80;100.00
26043;BME280;13818;52.156;5.382;2022-08-19T00:26:58;101121.00;;;19.81;100.00
26043;BME280;13818;52.156;5.382;2022-08-19T00:29:27;101120.00;;;19.82;100.00
26043;BME280;13818;52.156;5.382;2022-08-19T00:31:53;101113.63;;;19.83;100.00
26043;BME280;13818;52.156;5.382;2022-08-19T00:34:22;101122.13;;;19.90;100.00
26043;BME280;13818;52.156;5.382;2022-08-19T00:36:51;101108.81;;;19.87;100.00
26043;BME280;13818;52.156;5.382;2022-08-19T00:39:17;101108.31;;;19.81;100.00
26043;BME280;13818;52.156;5.382;2022-08-19T00:41:45;101108.19;;;19.72;100.00
26043;BME280;13818;52.156;5.382;2022-08-19T00:44:15;101107.47;;;19.81;100.00
26043;BME280;13818;52.156;5.382;2022-08-19T00:46:47;101108.94;;;19.74;100.00
26043;BME280;13818;52.156;5.382;2022-08-19T00:49:16;101103.28;;;19.65;100.00
26043;BME280;13818;52.156;5.382;2022-08-19T00:51:46;101111.16;;;19.57;100.00
26043;BME280;13818;52.156;5.382;2022-08-19T00:54:16;101107.22;;;19.61;100.00
26043;BME280;13818;52.156;5.382;2022-08-19T00:56:43;101105.97;;;19.43;100.00
26043;BME280;13818;52.156;5.382;2022-08-19T00:59:11;101116.91;;;19.30;100.00
26043;BME280;13818;52.156;5.382;2022-08-19T01:01:39;101108.44;;;19.23;100.00
26043;BME280;13818;52.156;5.382;2022-08-19T01:04:07;101105.97;;;19.20;100.00
26043;BME280;13818;52.156;5.382;2022-08-19T01:06:35;101109.41;;;19.33;100.00
26043;BME280;13818;52.156;5.382;2022-08-19T01:09:04;101109.28;;;19.24;100.00
26043;BME280;13818;52.156;5.382;2022-08-19T01:11:34;101107.47;;;19.35;100.00
26043;BME280;13818;52.156;5.382;2022-08-19T01:14:01;101101.31;;;19.45;100.00
26043;BME280;13818;52.156;5.382;2022-08-19T01:16:28;101099.25;;;19.48;100.00
26043;BME280;13818;52.156;5.382;2022-08-19T01:18:56;101100.00;;;19.50;100.00
26043;BME280;13818;52.156;5.382;2022-08-19T01:21:27;101100.47;;;19.56;100.00
26043;BME280;13818;52.156;5.382;2022-08-19T01:23:56;101109.16;;;19.14;100.00
26043;BME280;13818;52.156;5.382;2022-08-19T01:26:24;101102.75;;;19.03;100.00
26043;BME280;13818;52.156;5.382;2022-08-19T01:28:54;101101.09;;;19.25;100.00
26043;BME280;13818;52.156;5.382;2022-08-19T01:31:22;101098.97;;;19.29;100.00
26043;BME280;13818;52.156;5.382;2022-08-19T01:33:51;101098.25;;;19.38;100.00
26043;BME280;13818;52.156;5.382;2022-08-19T01:36:23;101109.91;;;19.27;100.00
26043;BME280;13818;52.156;5.382;2022-08-19T01:38:50;101105.47;;;19.15;100.00
26043;BME280;13818;52.156;5.382;2022-08-19T01:41:18;101109.25;;;19.01;100.00
26043;BME280;13818;52.156;5.382;2022-08-19T01:43:45;101109.38;;;18.99;100.00
26043;BME280;13818;52.156;5.382;2022-08-19T01:46:12;101117.81;;;18.95;100.00
26043;BME280;13818;52.156;5.382;2022-08-19T01:48:40;101122.25;;;18.96;100.00
26043;BME280;13818;52.156;5.382;2022-08-19T01:51:08;101112.97;;;18.87;100.00
26043;BME280;13818;52.156;5.382;2022-08-19T01:53:35;101100.06;;;18.79;100.00
26043;BME280;13818;52.156;5.382;2022-08-19T01:56:03;101110.66;;;18.82;100.00
26043;BME280;13818;52.156;5.382;2022-08-19T01:58:34;101113.91;;;18.75;100.00
26043;BME280;13818;52.156;5.382;2022-08-19T02:01:04;101110.63;;;18.71;100.00
26043;BME280;13818;52.156;5.382;2022-08-19T02:03:31;101110.22;;;18.64;100.00
26043;BME280;13818;52.156;5.382;2022-08-19T02:05:59;101109.81;;;18.58;100.00
26043;BME280;13818;52.156;5.382;2022-08-19T02:08:28;101119.56;;;18.72;100.00
26043;BME280;13818;52.156;5.382;2022-08-19T02:10:55;101119.06;;;18.66;100.00
26043;BME280;13818;52.156;5.382;2022-08-19T02:13:25;101115.50;;;18.66;100.00
26043;BME280;13818;52.156;5.382;2022-08-19T02:15:53;101122.22;;;18.60;100.00
26043;BME280;13818;52.156;5.382;2022-08-19T02:18:19;101120.16;;;18.64;100.00
26043;BME280;13818;52.156;5.382;2022-08-19T02:20:46;101123.69;;;18.64;100.00
26043;BME280;13818;52.156;5.382;2022-08-19T02:23:14;101113.38;;;18.58;100.00
26043;BME280;13818;52.156;5.382;2022-08-19T02:25:42;101115.09;;;18.59;100.00
26043;BME280;13818;52.156;5.382;2022-08-19T02:28:10;101119.66;;;18.59;100.00
26043;BME280;13818;52.156;5.382;2022-08-19T02:30:37;101118.16;;;18.54;100.00
26043;BME280;13818;52.156;5.382;2022-08-19T02:33:05;101133.34;;;18.56;100.00
26043;BME280;13818;52.156;5.382;2022-08-19T02:35:31;101136.19;;;18.54;100.00
26043;BME280;13818;52.156;5.382;2022-08-19T02:37:58;101132.50;;;18.55;100.00
26043;BME280;13818;52.156;5.382;2022-08-19T02:40:48;101135.72;;;18.60;100.00
26043;BME280;13818;52.156;5.382;2022-08-19T02:43:15;101135.97;;;18.57;100.00
26043;BME280;13818;52.156;5.382;2022-08-19T02:45:42;101139.22;;;18.49;100.00
26043;BME280;13818;52.156;5.382;2022-08-19T02:48:10;101148.66;;;18.44;100.00
26043;BME280;13818;52.156;5.382;2022-08-19T02:50:37;101152.78;;;18.36;100.00
26043;BME280;13818;52.156;5.382;2022-08-19T02:53:04;101146.34;;;18.26;100.00
26043;BME280;13818;52.156;5.382;2022-08-19T02:55:31;101139.22;;;18.25;100.00
26043;BME280;13818;52.156;5.382;2022-08-19T02:57:57;101131.00;;;18.27;100.00
26043;BME280;13818;52.156;5.382;2022-08-19T03:00:25;101138.56;;;18.34;100.00
26043;BME280;13818;52.156;5.382;2022-08-19T03:02:52;101141.84;;;18.38;100.00
26043;BME280;13818;52.156;5.382;2022-08-19T03:05:20;101146.06;;;18.42;100.00
26043;BME280;13818;52.156;5.382;2022-08-19T03:07:46;101142.75;;;18.38;100.00
26043;BME280;13818;52.156;5.382;2022-08-19T03:10:13;101130.59;;;18.20;100.00
26043;BME280;13818;52.156;5.382;2022-08-19T03:12:39;101137.47;;;18.24;100.00
26043;BME280;13818;52.156;5.382;2022-08-19T03:15:07;101120.59;;;18.09;100.00
26043;BME280;13818;52.156;5.382;2022-08-19T03:17:34;101125.72;;;18.01;100.00
26043;BME280;13818;52.156;5.382;2022-08-19T03:20:02;101126.56;;;18.01;100.00
26043;BME280;13818;52.156;5.382;2022-08-19T03:22:30;101124.28;;;18.08;100.00
26043;BME280;13818;52.156;5.382;2022-08-19T03:24:57;101119.81;;;18.20;100.00
26043;BME280;13818;52.156;5.382;2022-08-19T03:27:24;101115.25;;;18.33;100.00
26043;BME280;13818;52.156;5.382;2022-08-19T03:29:51;101118.91;;;18.32;100.00
26043;BME280;13818;52.156;5.382;2022-08-19T03:32:17;101116.91;;;18.47;100.00
26043;BME280;13818;52.156;5.382;2022-08-19T03:34:44;101120.22;;;18.27;100.00
26043;BME280;13818;52.156;5.382;2022-08-19T03:37:11;101121.94;;;18.03;100.00
26043;BME280;13818;52.156;5.382;2022-08-19T03:39:40;101116.53;;;18.03;100.00
26043;BME280;13818;52.156;5.382;2022-08-19T03:42:08;101122.38;;;17.97;100.00
26043;BME280;13818;52.156;5.382;2022-08-19T03:44:35;101130.69;;;17.94;100.00
26043;BME280;13818;52.156;5.382;2022-08-19T03:47:04;101119.22;;;18.03;100.00
26043;BME280;13818;52.156;5.382;2022-08-19T03:49:32;101126.41;;;18.16;100.00
26043;BME280;13818;52.156;5.382;2022-08-19T03:52:00;101124.69;;;18.15;100.00
26043;BME280;13818;52.156;5.382;2022-08-19T03:54:27;101118.78;;;18.10;100.00
26043;BME280;13818;52.156;5.382;2022-08-19T03:56:56;101109.53;;;18.01;100.00
26043;BME280;13818;52.156;5.382;2022-08-19T03:59:25;101110.25;;;17.90;100.00
26043;BME280;13818;52.156;5.382;2022-08-19T04:01:52;101109.19;;;17.93;100.00
26043;BME280;13818;52.156;5.382;2022-08-19T04:04:19;101110.50;;;17.87;100.00
26043;BME280;13818;52.156;5.382;2022-08-19T04:06:46;101125.53;;;17.65;100.00
26043;BME280;13818;52.156;5.382;2022-08-19T04:09:14;101113.03;;;17.64;100.00
26043;BME280;13818;52.156;5.382;2022-08-19T04:11:43;101117.75;;;17.73;100.00
26043;BME280;13818;52.156;5.382;2022-08-19T04:14:14;101110.41;;;17.76;100.00
26043;BME280;13818;52.156;5.382;2022-08-19T04:16:42;101109.38;;;17.65;100.00
26043;BME280;13818;52.156;5.382;2022-08-19T04:19:10;101100.53;;;17.63;100.00
26043;BME280;13818;52.156;5.382;2022-08-19T04:21:36;101105.25;;;17.60;100.00
26043;BME280;13818;52.156;5.382;2022-08-19T04:24:04;101113.03;;;17.64;100.00
26043;BME280;13818;52.156;5.382;2022-08-19T04:26:34;101113.47;;;17.58;100.00
26043;BME280;13818;52.156;5.382;2022-08-19T04:29:05;101107.00;;;17.48;100.00
26043;BME280;13818;52.156;5.382;2022-08-19T04:31:33;101104.75;;;17.42;100.00
26043;BME280;13818;52.156;5.382;2022-08-19T04:34:02;101108.72;;;17.36;100.00
26043;BME280;13818;52.156;5.382;2022-08-19T04:36:31;101113.38;;;17.34;100.00
26043;BME280;13818;52.156;5.382;2022-08-19T04:39:00;101112.63;;;17.19;100.00
26043;BME280;13818;52.156;5.382;2022-08-19T04:41:27;101103.56;;;17.07;100.00
26043;BME280;13818;52.156;5.382;2022-08-19T04:44:11;101099.06;;;17.07;100.00
26043;BME280;13818;52.156;5.382;2022-08-19T04:46:40;101093.97;;;17.16;100.00
26043;BME280;13818;52.156;5.382;2022-08-19T04:49:07;101101.84;;;17.06;100.00
26043;BME280;13818;52.156;5.382;2022-08-19T04:51:34;101096.78;;;17.14;100.00
26043;BME280;13818;52.156;5.382;2022-08-19T04:54:02;101098.63;;;17.14;100.00
26043;BME280;13818;52.156;5.382;2022-08-19T04:56:29;101102.41;;;17.11;100.00
26043;BME280;13818;52.156;5.382;2022-08-19T04:58:56;101105.94;;;17.12;100.00
26043;BME280;13818;52.156;5.382;2022-08-19T05:01:25;101099.28;;;17.30;100.00
26043;BME280;13818;52.156;5.382;2022-08-19T05:03:53;101110.34;;;17.51;100.00
26043;BME280;13818;52.156;5.382;2022-08-19T05:06:21;101114.75;;;17.65;100.00
26043;BME280;13818;52.156;5.382;2022-08-19T05:08:48;101111.41;;;17.62;100.00
26043;BME280;13818;52.156;5.382;2022-08-19T05:11:17;101119.34;;;17.76;100.00
26043;BME280;13818;52.156;5.382;2022-08-19T05:13:45;101123.97;;;17.87;100.00
26043;BME280;13818;52.156;5.382;2022-08-19T05:16:14;101128.25;;;18.15;100.00
26043;BME280;13818;52.156;5.382;2022-08-19T05:18:42;101129.50;;;18.47;100.00
26043;BME280;13818;52.156;5.382;2022-08-19T05:21:28;101112.31;;;18.72;100.00
26043;BME280;13818;52.156;5.382;2022-08-19T05:24:13;101113.56;;;19.15;100.00
26043;BME280;13818;52.156;5.382;2022-08-19T05:26:43;101113.38;;;19.41;100.00
26043;BME280;13818;52.156;5.382;2022-08-19T05:29:12;101113.59;;;19.72;100.00
26043;BME280;13818;52.156;5.382;2022-08-19T05:31:39;101114.56;;;20.16;100.00
26043;BME280;13818;52.156;5.382;2022-08-19T05:34:06;101107.78;;;20.54;100.00
26043;BME280;13818;52.156;5.382;2022-08-19T05:36:37;101108.44;;;20.79;100.00
26043;BME280;13818;52.156;5.382;2022-08-19T05:39:05;101115.88;;;20.98;100.00
26043;BME280;13818;52.156;5.382;2022-08-19T05:41:32;101112.41;;;21.48;100.00
26043;BME280;13818;52.156;5.382;2022-08-19T05:44:02;101104.44;;;21.87;100.00
26043;BME280;13818;52.156;5.382;2022-08-19T05:46:32;101098.47;;;21.93;100.00
26043;BME280;13818;52.156;5.382;2022-08-19T05:48:58;101100.81;;;22.08;100.00
26043;BME280;13818;52.156;5.382;2022-08-19T05:51:25;101105.47;;;22.37;100.00
26043;BME280;13818;52.156;5.382;2022-08-19T05:53:52;101108.00;;;22.68;100.00
26043;BME280;13818;52.156;5.382;2022-08-19T05:56:19;101105.03;;;22.51;100.00
26043;BME280;13818;52.156;5.382;2022-08-19T05:58:45;101104.59;;;22.66;100.00
26043;BME280;13818;52.156;5.382;2022-08-19T06:01:14;101101.16;;;22.54;100.00
26043;BME280;13818;52.156;5.382;2022-08-19T06:03:42;101107.97;;;23.07;100.00
26043;BME280;13818;52.156;5.382;2022-08-19T06:06:09;101112.47;;;23.46;100.00
26043;BME280;13818;52.156;5.382;2022-08-19T06:08:37;101101.22;;;23.68;100.00
26043;BME280;13818;52.156;5.382;2022-08-19T06:11:19;101117.53;;;23.68;100.00
26043;BME280;13818;52.156;5.382;2022-08-19T06:13:47;101107.63;;;23.39;100.00
26043;BME280;13818;52.156;5.382;2022-08-19T06:16:16;101112.88;;;23.51;100.00
26043;BME280;13818;52.156;5.382;2022-08-19T06:18:46;101106.69;;;23.59;100.00
26043;BME280;13818;52.156;5.382;2022-08-19T06:21:13;101106.50;;;23.98;100.00
26043;BME280;13818;52.156;5.382;2022-08-19T06:23:39;101113.81;;;24.43;100.00
26043;BME280;13818;52.156;5.382;2022-08-19T06:26:11;101109.53;;;24.77;100.00
26043;BME280;13818;52.156;5.382;2022-08-19T06:28:39;101108.78;;;25.11;100.00
26043;BME280;13818;52.156;5.382;2022-08-19T06:31:08;101102.34;;;25.38;100.00
26043;BME280;13818;52.156;5.382;2022-08-19T06:33:35;101112.06;;;25.75;100.00
26043;BME280;13818;52.156;5.382;2022-08-19T06:36:02;101108.72;;;25.55;100.00
26043;BME280;13818;52.156;5.382;2022-08-19T06:38:29;101109.06;;;25.26;100.00
26043;BME280;13818;52.156;5.382;2022-08-19T06:41:00;101109.09;;;24.81;100.00
26043;BME280;13818;52.156;5.382;2022-08-19T06:43:27;101127.75;;;24.40;100.00
26043;BME280;13818;52.156;5.382;2022-08-19T06:45:54;101124.84;;;24.24;100.00
26043;BME280;13818;52.156;5.382;2022-08-19T06:48:21;101125.13;;;24.02;100.00
26043;BME280;13818;52.156;5.382;2022-08-19T06:50:47;101115.44;;;23.52;100.00
26043;BME280;13818;52.156;5.382;2022-08-19T06:53:17;101117.13;;;23.26;100.00
26043;BME280;13818;52.156;5.382;2022-08-19T06:55:44;101114.88;;;22.91;100.00
26043;BME280;13818;52.156;5.382;2022-08-19T06:58:10;101130.59;;;22.49;100.00
26043;BME280;13818;52.156;5.382;2022-08-19T07:00:37;101117.16;;;22.77;100.00
26043;BME280;13818;52.156;5.382;2022-08-19T07:03:05;101119.19;;;22.65;100.00
26043;BME280;13818;52.156;5.382;2022-08-19T07:05:32;101124.75;;;22.63;100.00
26043;BME280;13818;52.156;5.382;2022-08-19T07:07:59;101124.09;;;22.10;100.00
26043;BME280;13818;52.156;5.382;2022-08-19T07:10:25;101132.31;;;22.40;100.00
26043;BME280;13818;52.156;5.382;2022-08-19T07:12:52;101127.03;;;22.48;100.00
26043;BME280;13818;52.156;5.382;2022-08-19T07:15:18;101136.63;;;22.52;100.00
26043;BME280;13818;52.156;5.382;2022-08-19T07:17:46;101131.47;;;22.69;100.00
26043;BME280;13818;52.156;5.382;2022-08-19T07:20:15;101139.75;;;22.48;100.00
26043;BME280;13818;52.156;5.382;2022-08-19T07:22:42;101138.94;;;22.16;100.00
26043;BME280;13818;52.156;5.382;2022-08-19T07:25:10;101139.69;;;22.18;100.00
26043;BME280;13818;52.156;5.382;2022-08-19T07:27:38;101136.41;;;22.24;100.00
26043;BME280;13818;52.156;5.382;2022-08-19T07:30:05;101140.78;;;22.76;100.00
26043;BME280;13818;52.156;5.382;2022-08-19T07:32:32;101133.19;;;22.70;100.00
26043;BME280;13818;52.156;5.382;2022-08-19T07:34:59;101137.63;;;22.71;100.00
26043;BME280;13818;52.156;5.382;2022-08-19T07:37:29;101137.75;;;22.89;100.00
26043;BME280;13818;52.156;5.382;2022-08-19T07:39:56;101132.75;;;22.94;100.00
26043;BME280;13818;52.156;5.382;2022-08-19T07:42:22;101138.03;;;23.25;100.00
26043;BME280;13818;52.156;5.382;2022-08-19T07:44:49;101143.59;;;22.94;100.00
26043;BME280;13818;52.156;5.382;2022-08-19T07:47:15;101136.88;;;23.18;100.00
26043;BME280;13818;52.156;5.382;2022-08-19T07:49:42;101138.75;;;23.07;100.00
26043;BME280;13818;52.156;5.382;2022-08-19T07:52:09;101145.13;;;23.83;100.00
26043;BME280;13818;52.156;5.382;2022-08-19T07:54:39;101148.47;;;24.05;100.00
26043;BME280;13818;52.156;5.382;2022-08-19T07:57:06;101161.44;;;24.57;100.00
26043;BME280;13818;52.156;5.382;2022-08-19T07:59:34;101161.63;;;24.10;100.00
26043;BME280;13818;52.156;5.382;2022-08-19T08:02:01;101156.56;;;23.97;100.00
26043;BME280;13818;52.156;5.382;2022-08-19T08:04:29;101157.63;;;24.04;100.00
26043;BME280;13818;52.156;5.382;2022-08-19T08:07:14;101153.25;;;23.55;100.00
26043;BME280;13818;52.156;5.382;2022-08-19T08:10:00;101156.81;;;23.56;100.00
26043;BME280;13818;52.156;5.382;2022-08-19T08:12:29;101169.53;;;23.65;100.00
26043;BME280;13818;52.156;5.382;2022-08-19T08:14:59;101164.94;;;23.66;100.00
26043;BME280;13818;52.156;5.382;2022-08-19T08:17:27;101171.19;;;23.38;100.00
26043;BME280;13818;52.156;5.382;2022-08-19T08:19:55;101177.66;;;23.28;100.00
26043;BME280;13818;52.156;5.382;2022-08-19T08:22:23;101175.63;;;23.39;100.00
26043;BME280;13818;52.156;5.382;2022-08-19T08:25:11;101173.59;;;23.51;100.00
26043;BME280;13818;52.156;5.382;2022-08-19T08:27:39;101177.88;;;23.54;100.00
26043;BME280;13818;52.156;5.382;2022-08-19T08:30:07;101180.44;;;23.55;100.00
26043;BME280;13818;52.156;5.382;2022-08-19T08:32:35;101187.19;;;23.51;100.00
26043;BME280;13818;52.156;5.382;2022-08-19T08:35:02;101193.91;;;23.47;100.00
26043;BME280;13818;52.156;5.382;2022-08-19T08:37:29;101190.34;;;23.47;100.00
26043;BME280;13818;52.156;5.382;2022-08-19T08:39:56;101199.78;;;23.52;100.00
26043;BME280;13818;52.156;5.382;2022-08-19T08:42:27;101192.97;;;23.76;100.00
26043;BME280;13818;52.156;5.382;2022-08-19T08:44:59;101202.50;;;23.90;100.00
26043;BME280;13818;52.156;5.382;2022-08-19T08:47:29;101190.66;;;24.19;100.00
26043;BME280;13818;52.156;5.382;2022-08-19T08:50:02;101190.00;;;24.35;100.00
26043;BME280;13818;52.156;5.382;2022-08-19T08:52:32;101194.28;;;24.37;100.00
26043;BME280;13818;52.156;5.382;2022-08-19T08:55:07;101193.63;;;24.53;100.00
26043;BME280;13818;52.156;5.382;2022-08-19T08:57:39;101194.44;;;24.36;100.00
26043;BME280;13818;52.156;5.382;2022-08-19T09:00:09;101192.38;;;24.20;100.00
26043;BME280;13818;52.156;5.382;2022-08-19T09:02:38;101186.69;;;24.13;100.00
26043;BME280;13818;52.156;5.382;2022-08-19T09:05:05;101184.56;;;23.69;100.00
26043;BME280;13818;52.156;5.382;2022-08-19T09:07:40;101183.97;;;23.76;100.00
26043;BME280;13818;52.156;5.382;2022-08-19T09:10:16;101184.78;;;23.96;100.00
26043;BME280;13818;52.156;5.382;2022-08-19T09:12:54;101192.81;;;24.43;100.00
26043;BME280;13818;52.156;5.382;2022-08-19T09:15:25;101199.13;;;24.62;100.00
26043;BME280;13818;52.156;5.382;2022-08-19T09:17:54;101199.56;;;25.03;100.00
26043;BME280;13818;52.156;5.382;2022-08-19T09:20:23;101202.22;;;25.13;100.00
26043;BME280;13818;52.156;5.382;2022-08-19T09:22:50;101200.94;;;25.07;100.00
26043;BME280;13818;52.156;5.382;2022-08-19T09:25:19;101201.78;;;25.26;100.00
26043;BME280;13818;52.156;5.382;2022-08-19T09:27:49;101192.72;;;25.25;100.00
26043;BME280;13818;52.156;5.382;2022-08-19T09:30:19;101184.56;;;25.70;98.81
26043;BME280;13818;52.156;5.382;2022-08-19T09:32:47;101190.59;;;25.55;99.21
26043;BME280;13818;52.156;5.382;2022-08-19T09:35:14;101194.88;;;25.58;98.16
26043;BME280;13818;52.156;5.382;2022-08-19T09:37:41;101192.50;;;25.63;98.30
26043;BME280;13818;52.156;5.382;2022-08-19T09:40:10;101193.31;;;25.55;98.95
26043;BME280;13818;52.156;5.382;2022-08-19T09:42:36;101203.78;;;25.68;97.20
26043;BME280;13818;52.156;5.382;2022-08-19T09:45:05;101200.38;;;25.66;97.12
26043;BME280;13818;52.156;5.382;2022-08-19T09:47:32;101197.00;;;25.28;97.21
26043;BME280;13818;52.156;5.382;2022-08-19T09:50:01;101202.78;;;25.69;96.69
26043;BME280;13818;52.156;5.382;2022-08-19T09:52:27;101191.81;;;25.87;95.08
26043;BME280;13818;52.156;5.382;2022-08-19T09:54:54;101200.94;;;25.43;95.66
26043;BME280;13818;52.156;5.382;2022-08-19T09:57:20;101199.22;;;25.42;95.97
26043;BME280;13818;52.156;5.382;2022-08-19T09:59:47;101195.88;;;25.57;95.13
26043;BME280;13818;52.156;5.382;2022-08-19T10:02:15;101199.41;;;25.75;92.10
26043;BME280;13818;52.156;5.382;2022-08-19T10:04:43;101187.78;;;25.73;92.98
26043;BME280;13818;52.156;5.382;2022-08-19T10:07:29;101184.28;;;25.89;92.40
26043;BME280;13818;52.156;5.382;2022-08-19T10:09:56;101193.56;;;26.05;91.55
26043;BME280;13818;52.156;5.382;2022-08-19T10:12:22;101193.00;;;26.19;91.43
26043;BME280;13818;52.156;5.382;2022-08-19T10:14:49;101200.38;;;26.35;90.01
26043;BME280;13818;52.156;5.382;2022-08-19T10:17:17;101196.69;;;26.61;87.91
26043;BME280;13818;52.156;5.382;2022-08-19T10:19:44;101196.69;;;26.53;87.18
26043;BME280;13818;52.156;5.382;2022-08-19T10:22:10;101199.22;;;26.46;84.83
26043;BME280;13818;52.156;5.382;2022-08-19T10:24:39;101197.78;;;26.25;83.64
26043;BME280;13818;52.156;5.382;2022-08-19T10:27:06;101183.72;;;26.12;85.15
26043;BME280;13818;52.156;5.382;2022-08-19T10:29:33;101185.53;;;26.03;87.83
26043;BME280;13818;52.156;5.382;2022-08-19T10:32:02;101187.81;;;26.08;88.20
26043;BME280;13818;52.156;5.382;2022-08-19T10:34:32;101189.03;;;26.13;89.88
26043;BME280;13818;52.156;5.382;2022-08-19T10:36:59;101181.94;;;26.29;88.34
26043;BME280;13818;52.156;5.382;2022-08-19T10:39:26;101179.19;;;26.29;89.32
26043;BME280;13818;52.156;5.382;2022-08-19T10:41:55;101180.75;;;25.97;91.00
26043;BME280;13818;52.156;5.382;2022-08-19T10:44:22;101179.84;;;26.23;90.72
26043;BME280;13818;52.156;5.382;2022-08-19T10:46:49;101175.59;;;26.20;90.92
26043;BME280;13818;52.156;5.382;2022-08-19T10:49:17;101178.84;;;26.24;92.11
26043;BME280;13818;52.156;5.382;2022-08-19T10:51:45;101171.88;;;26.38;91.06
26043;BME280;13818;52.156;5.382;2022-08-19T10:54:29;101186.88;;;26.34;90.90
26043;BME280;13818;52.156;5.382;2022-08-19T10:57:10;101178.88;;;26.48;90.42
26043;BME280;13818;52.156;5.382;2022-08-19T10:59:36;101181.22;;;26.27;92.23
26043;BME280;13818;52.156;5.382;2022-08-19T11:02:06;101173.91;;;26.36;93.95
26043;BME280;13818;52.156;5.382;2022-08-19T11:04:34;101172.41;;;26.41;93.81
26043;BME280;13818;52.156;5.382;2022-08-19T11:07:03;101170.53;;;26.58;92.38
26043;BME280;13818;52.156;5.382;2022-08-19T11:09:30;101175.16;;;26.58;93.44
26043;BME280;13818;52.156;5.382;2022-08-19T11:11:57;101169.03;;;26.64;93.79
26043;BME280;13818;52.156;5.382;2022-08-19T11:14:24;101167.31;;;26.71;91.69
26043;BME280;13818;52.156;5.382;2022-08-19T11:16:52;101166.34;;;26.81;91.40
26043;BME280;13818;52.156;5.382;2022-08-19T11:19:21;101151.91;;;26.70;89.60
26043;BME280;13818;52.156;5.382;2022-08-19T11:21:49;101159.09;;;26.55;91.88
26043;BME280;13818;52.156;5.382;2022-08-19T11:24:19;101161.13;;;26.44;94.96
26043;BME280;13818;52.156;5.382;2022-08-19T11:26:47;101154.47;;;26.47;95.41
26043;BME280;13818;52.156;5.382;2022-08-19T11:29:14;101154.81;;;26.69;93.24
26043;BME280;13818;52.156;5.382;2022-08-19T11:31:43;101154.69;;;26.78;93.37
26043;BME280;13818;52.156;5.382;2022-08-19T11:34:12;101146.16;;;26.73;93.06
26043;BME280;13818;52.156;5.382;2022-08-19T11:36:41;101154.69;;;26.95;92.07
26043;BME280;13818;52.156;5.382;2022-08-19T11:39:10;101139.97;;;26.71;91.24
26043;BME280;13818;52.156;5.382;2022-08-19T11:41:39;101142.22;;;26.84;92.96
26043;BME280;13818;52.156;5.382;2022-08-19T11:44:06;101140.34;;;27.01;92.89
26043;BME280;13818;52.156;5.382;2022-08-19T11:46:35;101145.09;;;27.16;91.16
26043;BME280;13818;52.156;5.382;2022-08-19T11:49:03;101140.34;;;27.09;90.95
26043;BME280;13818;52.156;5.382;2022-08-19T11:51:30;101153.69;;;26.96;91.65
26043;BME280;13818;52.156;5.382;2022-08-19T11:53:58;101146.81;;;27.25;91.79
26043;BME280;13818;52.156;5.382;2022-08-19T11:56:25;101148.16;;;27.37;90.71
26043;BME280;13818;52.156;5.382;2022-08-19T11:58:54;101145.44;;;27.46;90.09
26043;BME280;13818;52.156;5.382;2022-08-19T12:01:24;101151.03;;;27.52;89.10
26043;BME280;13818;52.156;5.382;2022-08-19T12:03:53;101149.56;;;27.41;89.48
26043;BME280;13818;52.156;5.382;2022-08-19T12:06:22;101140.31;;;27.18;91.37
26043;BME280;13818;52.156;5.382;2022-08-19T12:08:54;101146.47;;;27.11;92.47
26043;BME280;13818;52.156;5.382;2022-08-19T12:11:21;101150.09;;;27.12;92.75
26043;BME280;13818;52.156;5.382;2022-08-19T12:13:47;101141.88;;;26.95;93.82
26043;BME280;13818;52.156;5.382;2022-08-19T12:16:17;101161.72;;;26.89;95.23
26043;BME280;13818;52.156;5.382;2022-08-19T12:18:44;101163.03;;;26.69;96.85
26043;BME280;13818;52.156;5.382;2022-08-19T12:21:11;101173.28;;;26.58;97.85
26043;BME280;13818;52.156;5.382;2022-08-19T12:23:39;101176.31;;;26.47;98.90
26043;BME280;13818;52.156;5.382;2022-08-19T12:26:06;101165.50;;;26.12;100.00
26043;BME280;13818;52.156;5.382;2022-08-19T12:28:33;101167.00;;;26.07;100.00
26043;BME280;13818;52.156;5.382;2022-08-19T12:31:00;101162.81;;;25.60;100.00
26043;BME280;13818;52.156;5.382;2022-08-19T12:33:28;101165.34;;;25.35;100.00
26043;BME280;13818;52.156;5.382;2022-08-19T12:36:00;101166.28;;;24.99;100.00
26043;BME280;13818;52.156;5.382;2022-08-19T12:38:27;101175.56;;;24.89;100.00
26043;BME280;13818;52.156;5.382;2022-08-19T12:40:54;101166.38;;;24.53;100.00
26043;BME280;13818;52.156;5.382;2022-08-19T12:43:20;101169.63;;;24.39;100.00
26043;BME280;13818;52.156;5.382;2022-08-19T12:45:47;101165.09;;;24.30;100.00
26043;BME280;13818;52.156;5.382;2022-08-19T12:48:13;101171.19;;;24.14;100.00
26043;BME280;13818;52.156;5.382;2022-08-19T12:50:44;101175.25;;;24.10;100.00